createdAt,value
2019-03-12T00:02:27.757Z,50.63
2019-03-12T00:04:58.792Z,50.89
2019-03-12T00:07:29.854Z,50.51
2019-03-12T00:10:00.941Z,50.82
2019-03-12T00:12:33.420Z,51.19
2019-03-12T00:15:04.997Z,51.52
2019-03-12T00:17:36.481Z,51.26
2019-03-12T00:20:08.125Z,51.73
2019-03-12T00:22:39.501Z,52.00
2019-03-12T00:25:10.624Z,51.44
2019-03-12T00:27:42.654Z,51.21
2019-03-12T00:30:15.910Z,51.13
2019-03-12T00:32:47.143Z,50.86
2019-03-12T00:35:18.794Z,51.08
2019-03-12T00:37:49.800Z,51.23
2019-03-12T00:40:22.148Z,51.15
2019-03-12T00:42:53.613Z,51.12
2019-03-12T00:45:24.944Z,51.12
2019-03-12T00:47:56.015Z,51.09
2019-03-12T00:50:27.346Z,51.08
2019-03-12T00:52:58.382Z,50.74
2019-03-12T00:55:29.919Z,50.67
2019-03-12T00:58:00.882Z,50.54
2019-03-12T01:00:32.998Z,50.66
2019-03-12T01:03:04.173Z,50.36
2019-03-12T01:05:35.145Z,50.47
2019-03-12T01:08:06.698Z,50.74
2019-03-12T01:10:38.201Z,50.47
2019-03-12T01:13:16.968Z,50.49
2019-03-12T01:15:48.255Z,50.66
2019-03-12T01:18:19.635Z,50.53
2019-03-12T01:20:50.711Z,50.39
2019-03-12T01:23:22.437Z,50.14
2019-03-12T01:25:54.095Z,50.45
2019-03-12T01:28:25.088Z,50.47
2019-03-12T01:30:56.064Z,50.55
2019-03-12T01:33:27.059Z,50.47
2019-03-12T01:35:58.284Z,50.18
2019-03-12T01:38:29.528Z,50.41
2019-03-12T01:41:00.891Z,50.28
2019-03-12T01:43:32.207Z,50.20
2019-03-12T01:46:03.570Z,50.25
2019-03-12T01:48:35.093Z,50.26
2019-03-12T01:51:06.994Z,49.97
2019-03-12T01:53:38.029Z,50.86
2019-03-12T01:56:09.491Z,50.46
2019-03-12T01:58:40.766Z,50.59
2019-03-12T02:01:11.873Z,50.86
2019-03-12T02:03:43.295Z,51.18
2019-03-12T02:06:14.301Z,51.83
2019-03-12T02:08:46.006Z,52.11
2019-03-12T02:11:17.462Z,52.42
2019-03-12T02:13:48.981Z,53.15
2019-03-12T02:16:19.979Z,52.96
2019-03-12T02:18:51.100Z,52.87
2019-03-12T02:21:22.366Z,52.59
2019-03-12T02:23:53.782Z,53.12
2019-03-12T02:26:24.758Z,52.84
2019-03-12T02:28:56.302Z,52.67
2019-03-12T02:31:27.618Z,52.83
2019-03-12T02:33:58.834Z,53.13
2019-03-12T02:36:29.954Z,53.29
2019-03-12T02:39:01.255Z,53.18
2019-03-12T02:41:33.846Z,53.08
2019-03-12T02:44:05.068Z,53.17
2019-03-12T02:46:36.336Z,52.80
2019-03-12T02:49:09.694Z,52.73
2019-03-12T02:51:41.318Z,52.89
2019-03-12T02:54:12.321Z,53.13
2019-03-12T02:56:43.879Z,52.98
2019-03-12T02:59:14.851Z,53.51
2019-03-12T03:01:46.266Z,53.59
2019-03-12T03:04:18.503Z,53.20
2019-03-12T03:06:54.741Z,52.86
2019-03-12T03:09:26.133Z,52.91
2019-03-12T03:11:57.499Z,53.22
2019-03-12T03:14:35.881Z,53.33
2019-03-12T03:17:10.993Z,53.13
2019-03-12T03:19:42.601Z,53.20
2019-03-12T03:22:14.865Z,53.58
2019-03-12T03:24:46.428Z,53.16
2019-03-12T03:27:17.674Z,53.10
2019-03-12T03:29:48.648Z,53.76
2019-03-12T03:32:20.201Z,54.02
2019-03-12T03:34:51.617Z,53.94
2019-03-12T03:37:23.092Z,54.03
2019-03-12T03:39:54.542Z,53.83
2019-03-12T03:42:25.898Z,53.55
2019-03-12T03:44:57.210Z,53.94
2019-03-12T03:47:28.276Z,53.78
2019-03-12T03:49:59.266Z,53.54
2019-03-12T03:52:30.229Z,53.60
2019-03-12T03:55:01.287Z,54.05
2019-03-12T03:57:32.484Z,54.28
2019-03-12T04:00:03.741Z,53.87
2019-03-12T04:02:35.853Z,53.98
2019-03-12T04:05:07.490Z,54.23
2019-03-12T04:07:38.500Z,54.20
2019-03-12T04:10:10.285Z,54.07
2019-03-12T04:12:42.549Z,54.19
2019-03-12T04:15:13.906Z,54.62
2019-03-12T04:17:45.025Z,55.01
2019-03-12T04:20:16.551Z,55.34
2019-03-12T04:22:47.584Z,54.75
2019-03-12T04:25:18.708Z,55.32
2019-03-12T04:27:49.917Z,54.86
2019-03-12T04:30:21.483Z,54.88
2019-03-12T04:32:52.444Z,55.16
2019-03-12T04:35:24.123Z,54.79
2019-03-12T04:37:55.082Z,54.47
2019-03-12T04:40:26.064Z,54.14
2019-03-12T04:42:57.304Z,54.38
2019-03-12T04:45:28.373Z,54.09
2019-03-12T04:47:59.804Z,53.85
2019-03-12T04:50:31.145Z,53.71
2019-03-12T04:53:02.503Z,53.49
2019-03-12T04:55:33.542Z,53.09
2019-03-12T04:58:04.524Z,52.89
2019-03-12T05:00:35.739Z,53.28
2019-03-12T05:03:07.064Z,53.03
2019-03-12T05:05:38.652Z,52.74
2019-03-12T05:08:10.677Z,52.74
2019-03-12T05:10:41.670Z,52.71
2019-03-12T05:13:12.643Z,53.06
2019-03-12T05:15:43.621Z,53.16
2019-03-12T05:18:15.050Z,53.48
2019-03-12T05:20:46.183Z,53.51
2019-03-12T05:23:17.222Z,53.43
2019-03-12T05:25:48.595Z,53.47
2019-03-12T05:28:21.500Z,53.34
2019-03-12T05:30:52.725Z,53.36
2019-03-12T05:33:23.769Z,53.45
2019-03-12T05:35:55.428Z,53.60
2019-03-12T05:38:26.380Z,53.24
2019-03-12T05:40:57.360Z,53.28
2019-03-12T05:43:28.361Z,53.32
2019-03-12T05:45:59.339Z,53.74
2019-03-12T05:48:30.729Z,53.74
2019-03-12T05:51:02.104Z,53.87
2019-03-12T05:53:50.617Z,54.27
2019-03-12T05:56:22.038Z,54.13
2019-03-12T05:58:53.320Z,54.28
2019-03-12T06:01:24.688Z,54.33
2019-03-12T06:03:55.916Z,54.65
2019-03-12T06:06:27.190Z,54.58
2019-03-12T06:08:58.213Z,54.90
2019-03-12T06:11:29.871Z,54.80
2019-03-12T06:14:01.028Z,54.54
2019-03-12T06:16:32.313Z,54.59
2019-03-12T06:19:03.856Z,55.04
2019-03-12T06:21:34.837Z,55.13
2019-03-12T06:24:06.054Z,55.04
2019-03-12T06:26:37.448Z,55.65
2019-03-12T06:29:09.542Z,55.44
2019-03-12T06:31:57.537Z,54.85
2019-03-12T06:34:40.177Z,54.97
2019-03-12T06:37:39.584Z,55.14
2019-03-12T06:40:28.831Z,55.17
2019-03-12T06:43:18.813Z,55.23
2019-03-12T06:46:08.962Z,55.58
2019-03-12T06:48:53.289Z,55.60
2019-03-12T06:51:39.270Z,55.69
2019-03-12T06:54:25.375Z,55.74
2019-03-12T06:57:06.567Z,55.71
2019-03-12T06:59:56.631Z,55.41
2019-03-12T07:02:55.577Z,55.81
2019-03-12T07:05:53.272Z,55.58
2019-03-12T07:08:52.984Z,55.94
2019-03-12T07:11:54.951Z,55.78
2019-03-12T07:14:36.670Z,55.64
2019-03-12T07:17:16.437Z,55.86
2019-03-12T07:20:13.104Z,55.11
2019-03-12T07:23:06.198Z,54.63
2019-03-12T07:26:08.656Z,54.55
2019-03-12T07:29:13.976Z,54.81
2019-03-12T07:31:53.810Z,55.25
2019-03-12T07:34:36.836Z,55.62
2019-03-12T07:37:19.311Z,55.01
2019-03-12T07:39:57.230Z,54.73
2019-03-12T07:42:35.683Z,54.36
2019-03-12T07:45:42.013Z,53.57
2019-03-12T07:48:32.495Z,52.54
2019-03-12T07:51:16.828Z,52.19
2019-03-12T07:54:03.170Z,51.81
2019-03-12T07:56:48.304Z,52.12
2019-03-12T07:59:33.587Z,52.37
2019-03-12T08:02:29.338Z,51.06
2019-03-12T08:05:17.934Z,50.82
2019-03-12T08:08:02.713Z,49.96
2019-03-12T08:10:50.978Z,49.64
2019-03-12T08:13:41.252Z,49.45
2019-03-12T08:16:34.219Z,48.76
2019-03-12T08:19:20.035Z,48.95
2019-03-12T08:22:09.939Z,48.41
2019-03-12T08:24:55.085Z,47.49
2019-03-12T08:27:47.439Z,47.80
2019-03-12T08:30:29.117Z,47.39
2019-03-12T08:33:25.442Z,47.35
2019-03-12T08:36:06.279Z,46.49
2019-03-12T08:38:55.191Z,46.34
2019-03-12T08:41:51.300Z,46.03
2019-03-12T08:44:44.295Z,46.90
2019-03-12T08:47:49.693Z,45.80
2019-03-12T08:50:39.788Z,45.81
2019-03-12T08:53:22.721Z,46.47
2019-03-12T08:56:18.539Z,44.85
2019-03-12T08:59:10.079Z,45.64
2019-03-12T09:01:48.277Z,44.38
2019-03-12T09:04:44.613Z,43.51
2019-03-12T09:07:28.394Z,43.35
2019-03-12T09:10:21.927Z,44.43
2019-03-12T09:13:08.737Z,43.37
2019-03-12T09:15:57.664Z,43.05
2019-03-12T09:18:41.395Z,43.44
2019-03-12T09:21:21.173Z,42.96
2019-03-12T09:24:23.205Z,42.43
2019-03-12T09:27:01.202Z,42.19
2019-03-12T09:29:50.706Z,42.63
2019-03-12T09:32:50.242Z,42.94
2019-03-12T09:35:28.811Z,42.11
2019-03-12T09:38:07.070Z,42.25
2019-03-12T09:40:58.238Z,41.77
2019-03-12T09:43:48.288Z,41.38
2019-03-12T09:46:31.182Z,41.23
2019-03-12T09:49:19.968Z,41.56
2019-03-12T09:52:15.721Z,42.41
2019-03-12T09:55:08.817Z,42.68
2019-03-12T09:57:57.390Z,41.97
2019-03-12T10:01:02.447Z,41.50
2019-03-12T10:03:39.731Z,41.28
2019-03-12T10:06:29.131Z,42.14
2019-03-12T10:09:15.066Z,41.13
2019-03-12T10:11:52.376Z,41.45
2019-03-12T10:14:53.822Z,40.99
2019-03-12T10:17:37.447Z,40.91
2019-03-12T10:20:28.118Z,40.99
2019-03-12T10:23:18.165Z,41.13
2019-03-12T10:26:08.606Z,39.72
2019-03-12T10:28:50.144Z,39.85
2019-03-12T10:31:52.059Z,39.48
2019-03-12T10:34:34.846Z,40.33
2019-03-12T10:37:27.921Z,41.20
2019-03-12T10:40:14.007Z,39.74
2019-03-12T10:43:04.396Z,40.22
2019-03-12T10:45:58.559Z,39.53
2019-03-12T10:48:31.210Z,39.37
2019-03-12T10:51:02.511Z,40.08
2019-03-12T10:53:33.771Z,40.69
2019-03-12T10:56:05.468Z,40.71
2019-03-12T10:58:36.797Z,39.95
2019-03-12T11:01:08.224Z,39.86
2019-03-12T11:03:39.885Z,39.77
2019-03-12T11:06:10.992Z,38.52
2019-03-12T11:08:42.102Z,39.50
2019-03-12T11:11:13.241Z,39.32
2019-03-12T11:13:44.474Z,38.99
2019-03-12T11:16:15.795Z,40.04
2019-03-12T11:18:47.138Z,38.63
2019-03-12T11:21:18.654Z,37.88
2019-03-12T11:23:51.281Z,38.70
2019-03-12T11:26:22.336Z,37.70
2019-03-12T11:28:53.656Z,38.63
2019-03-12T11:31:24.626Z,38.00
2019-03-12T11:33:55.953Z,37.28
2019-03-12T11:36:27.195Z,36.25
2019-03-12T11:38:58.275Z,36.30
2019-03-12T11:41:29.396Z,37.90
2019-03-12T11:44:01.124Z,36.14
2019-03-12T11:46:42.822Z,34.66
2019-03-12T11:49:07.049Z,35.18
2019-03-12T11:51:38.358Z,34.71
2019-03-12T11:54:10.115Z,34.47
2019-03-12T11:56:41.467Z,34.37
2019-03-12T11:59:12.441Z,35.36
2019-03-12T12:01:43.503Z,34.77
2019-03-12T12:04:14.904Z,34.26
2019-03-12T12:06:45.997Z,34.86
2019-03-12T12:09:17.148Z,34.50
2019-03-12T12:11:48.126Z,34.80
2019-03-12T12:14:20.290Z,35.33
2019-03-12T12:16:51.635Z,34.00
2019-03-12T12:19:22.986Z,33.71
2019-03-12T12:21:54.227Z,33.90
2019-03-12T12:24:26.763Z,33.90
2019-03-12T12:26:58.074Z,31.91
2019-03-12T12:29:30.633Z,31.96
2019-03-12T12:32:02.192Z,31.71
2019-03-12T12:34:33.439Z,33.05
2019-03-12T12:37:04.495Z,32.64
2019-03-12T12:39:36.741Z,32.39
2019-03-12T12:42:07.806Z,32.65
2019-03-12T12:44:40.114Z,31.59
2019-03-12T12:47:11.266Z,31.85
2019-03-12T12:49:42.266Z,30.07
2019-03-12T12:52:13.273Z,30.49
2019-03-12T12:54:44.505Z,30.56
2019-03-12T12:57:15.848Z,31.72
2019-03-12T12:59:47.058Z,32.22
2019-03-12T13:02:18.198Z,30.79
2019-03-12T13:04:49.561Z,30.20
2019-03-12T13:07:21.139Z,31.66
2019-03-12T13:09:53.714Z,32.22
2019-03-12T13:12:25.834Z,31.33
2019-03-12T13:14:57.199Z,32.31
2019-03-12T13:17:28.324Z,32.34
2019-03-12T13:19:59.974Z,32.57
2019-03-12T13:22:31.151Z,32.41
2019-03-12T13:25:02.146Z,31.60
2019-03-12T13:27:42.202Z,31.05
2019-03-12T13:30:08.468Z,30.95
2019-03-12T13:32:40.085Z,30.49
2019-03-12T13:35:11.953Z,31.50
2019-03-12T13:37:44.696Z,31.83
2019-03-12T13:40:17.037Z,32.14
2019-03-12T13:42:48.193Z,31.96
2019-03-12T13:45:20.023Z,32.11
2019-03-12T13:47:50.995Z,32.48
2019-03-12T13:50:22.226Z,32.20
2019-03-12T13:52:53.248Z,32.90
2019-03-12T13:55:24.548Z,32.00
2019-03-12T13:57:55.627Z,32.61
2019-03-12T14:00:26.852Z,33.27
2019-03-12T14:02:58.620Z,32.85
2019-03-12T14:05:29.700Z,33.48
2019-03-12T14:08:02.122Z,33.79
2019-03-12T14:10:33.112Z,33.44
2019-03-12T14:13:04.246Z,34.50
2019-03-12T14:15:35.972Z,34.53
2019-03-12T14:18:07.399Z,34.62
2019-03-12T14:21:09.832Z,34.38
2019-03-12T14:24:02.548Z,33.96
2019-03-12T14:26:33.524Z,33.59
2019-03-12T14:29:04.608Z,34.02
2019-03-12T14:31:35.978Z,34.29
2019-03-12T14:34:07.277Z,34.25
2019-03-12T14:36:38.506Z,33.65
2019-03-12T14:39:10.864Z,33.47
2019-03-12T14:41:42.715Z,33.40
2019-03-12T14:44:14.054Z,33.05
2019-03-12T14:46:45.130Z,32.81
2019-03-12T14:49:17.156Z,32.96
2019-03-12T14:52:29.485Z,32.78
2019-03-12T14:55:00.647Z,33.10
2019-03-12T14:57:32.865Z,33.50
2019-03-12T15:00:04.847Z,33.41
2019-03-12T15:02:36.098Z,32.84
2019-03-12T15:05:07.662Z,33.42
2019-03-12T15:07:38.733Z,33.56
2019-03-12T15:10:11.822Z,33.51
2019-03-12T15:12:43.070Z,32.81
2019-03-12T15:15:14.694Z,33.16
2019-03-12T15:17:47.188Z,33.31
2019-03-12T15:20:18.373Z,33.31
2019-03-12T15:22:49.603Z,33.28
2019-03-12T15:25:22.330Z,33.82
2019-03-12T15:27:53.407Z,33.72
2019-03-12T15:30:24.453Z,34.05
2019-03-12T15:32:55.770Z,34.00
2019-03-12T15:35:26.923Z,34.24
2019-03-12T15:37:57.994Z,34.15
2019-03-12T15:40:29.223Z,34.37
2019-03-12T15:43:00.535Z,34.82
2019-03-12T15:45:31.785Z,34.22
2019-03-12T15:48:03.234Z,34.52
2019-03-12T15:50:34.920Z,34.05
2019-03-12T15:53:07.207Z,33.77
2019-03-12T15:55:38.437Z,33.89
2019-03-12T15:58:10.550Z,33.88
2019-03-12T16:00:41.607Z,34.21
2019-03-12T16:03:12.673Z,34.07
2019-03-12T16:05:43.717Z,33.57
2019-03-12T16:08:15.599Z,33.55
2019-03-12T16:10:57.457Z,34.02
2019-03-12T16:13:19.386Z,34.14
2019-03-12T16:15:50.771Z,33.01
2019-03-12T16:18:21.776Z,33.80
2019-03-12T16:20:52.949Z,33.30
2019-03-12T16:23:25.290Z,33.91
2019-03-12T16:25:56.452Z,34.18
2019-03-12T16:28:27.438Z,33.91
2019-03-12T16:30:59.004Z,33.99
2019-03-12T16:33:30.377Z,34.47
2019-03-12T16:36:01.432Z,34.43
2019-03-12T16:38:33.077Z,34.67
2019-03-12T16:41:04.527Z,34.90
2019-03-12T16:43:35.552Z,35.24
2019-03-12T16:46:06.664Z,35.52
2019-03-12T16:48:38.701Z,35.17
2019-03-12T16:51:10.527Z,35.15
2019-03-12T16:53:41.877Z,35.13
2019-03-12T16:56:12.930Z,35.28
2019-03-12T16:58:43.983Z,35.25
2019-03-12T17:01:15.048Z,35.37
2019-03-12T17:03:46.035Z,35.41
2019-03-12T17:06:17.359Z,35.76
2019-03-12T17:08:48.355Z,35.91
2019-03-12T17:11:19.431Z,36.22
2019-03-12T17:13:50.507Z,35.83
2019-03-12T17:16:22.041Z,36.05
2019-03-12T17:18:53.318Z,36.35
2019-03-12T17:21:24.609Z,36.28
2019-03-12T17:23:55.680Z,36.25
2019-03-12T17:26:26.951Z,36.31
2019-03-12T17:28:58.019Z,36.61
2019-03-12T17:31:29.462Z,36.16
2019-03-12T17:34:00.449Z,36.37
2019-03-12T17:36:31.424Z,36.55
2019-03-12T17:39:02.704Z,36.49
2019-03-12T17:41:35.373Z,36.76
2019-03-12T17:44:06.700Z,36.86
2019-03-12T17:46:38.050Z,37.13
2019-03-12T17:49:12.525Z,36.94
2019-03-12T17:51:42.500Z,37.08
2019-03-12T17:54:13.726Z,36.78
2019-03-12T17:56:45.678Z,37.09
2019-03-12T17:59:16.729Z,36.97
2019-03-12T18:01:47.694Z,36.79
2019-03-12T18:04:19.022Z,37.09
2019-03-12T18:06:50.238Z,37.16
2019-03-12T18:09:21.507Z,37.22
2019-03-12T18:11:53.829Z,37.39
2019-03-12T18:14:25.255Z,37.63
2019-03-12T18:16:56.272Z,37.49
2019-03-12T18:19:27.324Z,37.70
2019-03-12T18:21:59.411Z,38.09
2019-03-12T18:24:30.392Z,37.65
2019-03-12T18:27:02.284Z,37.34
2019-03-12T18:29:33.570Z,37.52
2019-03-12T18:32:04.902Z,37.49
2019-03-12T18:34:35.897Z,37.08
2019-03-12T18:37:07.015Z,36.87
2019-03-12T18:39:38.011Z,36.59
2019-03-12T18:42:09.275Z,37.02
2019-03-12T18:44:41.159Z,36.91
2019-03-12T18:47:12.134Z,36.50
2019-03-12T18:49:43.378Z,37.19
2019-03-12T18:52:14.744Z,37.15
2019-03-12T18:54:45.830Z,37.12
2019-03-12T18:57:17.871Z,36.82
2019-03-12T18:59:49.339Z,37.10
2019-03-12T19:02:20.766Z,36.74
2019-03-12T19:04:51.999Z,37.27
2019-03-12T19:07:23.454Z,37.38
2019-03-12T19:09:54.705Z,37.24
2019-03-12T19:12:26.248Z,37.35
2019-03-12T19:14:57.259Z,37.09
2019-03-12T19:17:28.395Z,37.20
2019-03-12T19:19:59.691Z,37.08
2019-03-12T19:22:30.671Z,37.29
2019-03-12T19:25:01.908Z,37.17
2019-03-12T19:27:33.219Z,36.86
2019-03-12T19:30:05.078Z,37.08
2019-03-12T19:32:42.393Z,37.15
2019-03-12T19:35:15.147Z,37.35
2019-03-12T19:37:46.465Z,37.26
2019-03-12T19:40:19.327Z,37.14
2019-03-12T19:42:50.650Z,37.21
2019-03-12T19:45:21.994Z,36.95
2019-03-12T19:47:53.060Z,37.17
2019-03-12T19:50:24.254Z,37.12
2019-03-12T19:52:55.716Z,36.71
2019-03-12T19:55:32.226Z,36.88
2019-03-12T19:58:03.850Z,37.00
2019-03-12T20:00:35.743Z,37.13
2019-03-12T20:03:13.374Z,36.81
2019-03-12T20:05:40.034Z,36.67
2019-03-12T20:08:11.543Z,37.08
2019-03-12T20:11:58.625Z,37.00
2019-03-12T20:15:30.069Z,37.07
2019-03-12T20:18:56.181Z,37.42
2019-03-12T20:22:36.588Z,37.24
2019-03-12T20:26:07.414Z,37.67
2019-03-12T20:29:57.137Z,37.59
2019-03-12T20:33:19.400Z,37.66
2019-03-12T20:37:00.229Z,38.15
2019-03-12T20:40:41.678Z,38.34
2019-03-12T20:44:05.689Z,38.14
2019-03-12T20:47:37.426Z,37.38
2019-03-12T20:51:06.748Z,38.19
2019-03-12T20:54:38.221Z,38.05
2019-03-12T20:58:11.889Z,38.15
2019-03-12T21:01:40.009Z,38.16
2019-03-12T21:05:08.174Z,37.94
2019-03-12T21:08:40.994Z,37.75
2019-03-12T21:12:17.584Z,37.85
2019-03-12T21:15:41.685Z,37.97
2019-03-12T21:19:21.998Z,38.13
2019-03-12T21:22:53.361Z,38.32
2019-03-12T21:26:24.014Z,38.04
2019-03-12T21:29:43.743Z,37.95
2019-03-12T21:32:16.103Z,38.12
2019-03-12T21:34:47.268Z,38.31
2019-03-12T21:37:18.763Z,37.98
2019-03-12T21:39:55.660Z,38.02
2019-03-12T21:42:25.374Z,37.93
2019-03-12T21:44:55.731Z,37.69
2019-03-12T21:47:26.811Z,37.51
2019-03-12T21:49:57.797Z,37.61
2019-03-12T21:52:29.343Z,37.71
2019-03-12T21:55:00.443Z,37.73
2019-03-12T21:57:32.546Z,37.85
2019-03-12T22:00:03.961Z,38.19
2019-03-12T22:02:36.567Z,38.03
2019-03-12T22:05:08.030Z,38.10
2019-03-12T22:07:39.645Z,38.12
2019-03-12T22:10:11.980Z,38.08
2019-03-12T22:12:42.966Z,37.89
2019-03-12T22:15:14.299Z,38.21
2019-03-12T22:17:45.366Z,38.28
2019-03-12T22:20:16.491Z,37.92
2019-03-12T22:23:15.342Z,37.87
2019-03-12T22:25:46.318Z,37.72
2019-03-12T22:28:17.583Z,37.77
2019-03-12T22:30:49.652Z,37.85
2019-03-12T22:33:20.708Z,37.83
2019-03-12T22:35:51.919Z,37.96
2019-03-12T22:38:23.150Z,38.20
2019-03-12T22:40:54.347Z,38.20
2019-03-12T22:43:25.406Z,37.94
2019-03-12T22:45:56.505Z,37.85
2019-03-12T22:48:27.910Z,37.91
2019-03-12T22:50:59.501Z,38.21
2019-03-12T22:53:30.634Z,37.99
2019-03-12T22:56:01.656Z,38.45
2019-03-12T22:58:32.964Z,39.23
2019-03-12T23:01:22.098Z,39.66
2019-03-12T23:04:11.820Z,40.13
2019-03-12T23:07:00.473Z,40.52
2019-03-12T23:09:46.186Z,40.55
2019-03-12T23:12:25.460Z,40.61
2019-03-12T23:14:57.509Z,39.90
2019-03-12T23:17:30.108Z,39.98
2019-03-12T23:20:01.083Z,40.79
2019-03-12T23:22:33.854Z,42.51
2019-03-12T23:25:05.118Z,43.24
2019-03-12T23:27:38.185Z,44.58
2019-03-12T23:30:12.861Z,45.52
2019-03-12T23:32:44.140Z,46.10
2019-03-12T23:35:15.535Z,46.74
2019-03-12T23:37:46.662Z,46.76
2019-03-12T23:40:18.094Z,48.85
2019-03-12T23:42:49.517Z,49.45
2019-03-12T23:45:20.254Z,51.55
2019-03-12T23:47:51.467Z,52.25
2019-03-12T23:50:23.975Z,52.97
2019-03-12T23:52:55.048Z,54.03
2019-03-12T23:55:26.740Z,54.79
2019-03-12T23:57:57.806Z,55.45
